Time;durP1;ratioP1;P1;durP2;ratioP2;P2;SDS_P1;SDS_P2;PMS_P1;PMS_P2;Temp;Humidity;BMP_temperature;BMP_pressure;BME280_temperature;BME280_humidity;BME280_pressure;Samples;Min_cycle;Max_cycle;Signal;HPM_P1;HPM_P2
2024/02/08 00:02:09;;;;;;;19.10;10.20;;;;;;;1.54;100.00;97967.81;272756;1272;22400;-87
2024/02/08 00:08:46;;;;;;;16.60;10.60;;;;;;;1.51;100.00;97964.63;272630;1272;22522;-86
2024/02/08 00:14:49;;;;;;;16.70;10.50;;;;;;;1.50;100.00;97955.35;272949;1271;23162;-85
2024/02/08 00:21:37;;;;;;;16.30;9.80;;;;;;;1.45;100.00;97959.96;272876;1272;22276;-86
2024/02/08 00:27:39;;;;;;;15.40;9.60;;;;;;;1.42;100.00;97960.73;272734;1272;23019;-86
2024/02/08 00:33:41;;;;;;;20.20;11.90;;;;;;;1.44;100.00;97959.40;272851;1272;22348;-86
2024/02/08 00:39:42;;;;;;;20.60;9.60;;;;;;;1.46;100.00;97958.16;271205;1272;26491;-86
2024/02/08 00:45:44;;;;;;;18.50;10.10;;;;;;;1.39;100.00;97962.17;271299;1272;22440;-86
2024/02/08 00:52:20;;;;;;;10.30;6.30;;;;;;;1.27;100.00;97960.27;272113;1272;22277;-85
2024/02/08 00:58:23;;;;;;;11.90;7.00;;;;;;;1.21;100.00;97964.77;272851;1272;22375;-85
2024/02/08 01:04:24;;;;;;;15.20;7.90;;;;;;;1.19;100.00;97968.03;272938;1272;22503;-86
2024/02/08 01:10:27;;;;;;;10.50;6.60;;;;;;;1.20;100.00;97966.85;272839;1272;23163;-86
2024/02/08 01:16:52;;;;;;;12.30;6.40;;;;;;;1.23;100.00;97966.02;272815;1272;22445;-86
2024/02/08 01:22:54;;;;;;;11.90;6.50;;;;;;;1.23;100.00;97958.69;271071;1271;22539;-86
2024/02/08 01:28:56;;;;;;;15.80;7.40;;;;;;;1.21;100.00;97958.30;268982;1273;22734;-86
2024/02/08 01:34:58;;;;;;;14.20;8.40;;;;;;;1.22;100.00;97952.87;269451;1260;22830;-85
2024/02/08 01:41:06;;;;;;;16.50;9.30;;;;;;;1.22;100.00;97948.88;270798;1272;22647;-86
2024/02/08 01:47:07;;;;;;;;;;;;;;;1.21;100.00;97947.07;271279;1272;22546;-86
2024/02/08 01:53:15;;;;;;;13.90;7.40;;;;;;;1.22;100.00;97942.56;270601;1272;22391;-85
2024/02/08 01:59:47;;;;;;;14.80;7.30;;;;;;;1.19;100.00;97939.21;272807;1263;22407;-86
2024/02/08 02:05:49;;;;;;;12.70;7.00;;;;;;;1.13;100.00;97934.42;272946;1271;22402;-86
2024/02/08 02:12:10;;;;;;;13.60;7.60;;;;;;;1.12;100.00;97928.84;272893;1271;22288;-86
2024/02/08 02:18:41;;;;;;;12.50;7.50;;;;;;;1.15;100.00;97929.79;272880;1272;22230;-86
2024/02/08 02:25:07;;;;;;;13.00;7.30;;;;;;;1.15;100.00;97934.10;272818;1272;22498;-86
2024/02/08 02:38:12;;;;;;;13.80;7.50;;;;;;;1.14;100.00;97936.30;270510;1280;23374;-84
2024/02/08 02:44:21;;;;;;;12.60;7.50;;;;;;;1.10;100.00;97933.63;271935;1280;22412;-88
2024/02/08 02:50:24;;;;;;;15.70;7.80;;;;;;;1.02;100.00;97935.68;271261;1280;23161;-84
2024/02/08 02:56:47;;;;;;;13.80;7.60;;;;;;;1.00;100.00;97933.39;271607;1283;22187;-84
2024/02/08 03:02:51;;;;;;;14.00;7.40;;;;;;;1.02;100.00;97933.33;270069;1280;22672;-84
2024/02/08 03:08:56;;;;;;;14.90;7.70;;;;;;;1.08;100.00;97932.12;268745;1279;22634;-87
2024/02/08 03:14:58;;;;;;;17.60;8.20;;;;;;;1.10;100.00;97931.70;268110;1281;22565;-84
2024/02/08 03:21:02;;;;;;;15.30;8.90;;;;;;;1.09;100.00;97929.58;270951;1280;22395;-85
2024/02/08 03:27:13;;;;;;;17.70;8.80;;;;;;;1.09;100.00;97930.13;271260;1280;23395;-87
2024/02/08 03:33:17;;;;;;;18.20;9.50;;;;;;;1.09;100.00;97933.44;271560;1280;22331;-84
2024/02/08 03:39:39;;;;;;;16.20;8.30;;;;;;;1.06;100.00;97936.36;271975;1288;22655;-85
2024/02/08 03:46:01;;;;;;;17.80;9.00;;;;;;;1.05;100.00;97937.88;270379;1280;22639;-84
2024/02/08 03:52:30;;;;;;;16.10;8.10;;;;;;;1.04;100.00;97941.84;268095;1267;24449;-85
2024/02/08 03:58:53;;;;;;;15.30;7.70;;;;;;;0.98;100.00;97947.19;269100;1279;23417;-85
2024/02/08 04:05:09;;;;;;;17.60;8.20;;;;;;;0.99;100.00;97946.53;271442;1277;22228;-85
2024/02/08 04:59:20;;;;;;;15.60;9.00;;;;;;;0.92;100.00;97946.31;268968;1277;23451;-85
2024/02/08 05:05:43;;;;;;;18.00;8.60;;;;;;;0.94;100.00;97942.60;268701;1270;23773;-84
2024/02/08 05:11:48;;;;;;;17.50;8.30;;;;;;;0.92;100.00;97943.84;271462;1280;22228;-85
2024/02/08 05:18:12;;;;;;;18.80;8.50;;;;;;;0.86;100.00;97938.58;272148;1281;22232;-84
2024/02/08 05:24:14;;;;;;;18.50;8.30;;;;;;;0.81;100.00;97937.04;271695;1277;23356;-84
2024/02/08 05:30:20;;;;;;;13.90;7.90;;;;;;;0.77;100.00;97933.05;272279;1280;23344;-83
2024/02/08 05:37:02;;;;;;;16.80;8.50;;;;;;;0.78;100.00;97935.77;271334;1276;22411;-86
2024/02/08 05:43:41;;;;;;;20.60;10.40;;;;;;;0.79;100.00;97937.48;271940;1271;22700;-85
2024/02/08 05:50:06;;;;;;;19.30;10.60;;;;;;;0.85;100.00;97938.32;271841;1276;22867;-85
2024/02/08 05:56:33;;;;;;;17.80;10.50;;;;;;;0.91;100.00;97937.58;272249;1276;22231;-84
2024/02/08 06:03:27;;;;;;;19.20;10.40;;;;;;;0.94;100.00;97940.44;272204;1277;23943;-84
2024/02/08 06:10:22;;;;;;;22.90;12.00;;;;;;;0.96;100.00;97929.66;272117;1276;23426;-84
2024/02/08 06:17:11;;;;;;;21.40;11.70;;;;;;;0.98;100.00;97939.32;272024;1277;22215;-84
2024/02/08 06:23:16;;;;;;;17.40;8.50;;;;;;;0.96;100.00;97948.13;272418;1277;22298;-85
2024/02/08 06:29:58;;;;;;;;;;;;;;;;;;;;;
2024/02/08 06:36:08;;;;;;;17.50;8.90;;;;;;;0.99;100.00;97957.91;271822;1276;22121;-85
2024/02/08 07:41:23;;;;;;;25.70;12.90;;;;;;;1.52;100.00;97958.95;272088;1277;23257;-85
2024/02/08 07:47:25;;;;;;;23.90;13.90;;;;;;;1.56;100.00;97954.58;268569;1277;22565;-85
2024/02/08 07:53:45;;;;;;;26.80;13.70;;;;;;;1.60;100.00;97949.85;267025;1276;5363108;-85
2024/02/08 07:59:46;;;;;;;25.00;13.20;;;;;;;1.65;100.00;97952.30;270957;1276;22573;-85
2024/02/08 08:05:56;;;;;;;35.20;15.80;;;;;;;1.71;100.00;97947.46;268650;1276;25484;-84
2024/02/08 08:11:59;;;;;;;32.10;15.50;;;;;;;1.80;100.00;97944.48;271358;1276;22216;-83
2024/02/08 08:18:02;;;;;;;27.60;14.50;;;;;;;1.86;100.00;97940.13;269993;1276;22582;-86
2024/02/08 08:24:06;;;;;;;34.60;15.80;;;;;;;1.90;100.00;97932.66;270626;1276;22302;-85
2024/02/08 08:30:28;;;;;;;28.50;13.50;;;;;;;1.97;100.00;97926.08;272263;1277;22188;-85
2024/02/08 08:36:29;;;;;;;20.70;10.30;;;;;;;2.02;100.00;97929.60;271757;1267;22487;-84
2024/02/08 08:42:57;;;;;;;22.00;10.70;;;;;;;1.98;100.00;97922.94;272359;1277;22936;-84
2024/02/08 08:49:20;;;;;;;25.30;12.80;;;;;;;1.99;100.00;97906.94;272022;1277;22192;-84
2024/02/08 08:55:22;;;;;;;22.90;12.30;;;;;;;2.18;100.00;97899.64;271831;1276;22233;-84
2024/02/08 09:01:24;;;;;;;17.40;10.10;;;;;;;2.34;100.00;97902.79;271793;1276;23096;-85
2024/02/08 09:07:30;;;;;;;16.80;10.20;;;;;;;2.38;100.00;97905.19;271836;1276;22416;-84
2024/02/08 09:13:37;;;;;;;21.20;11.70;;;;;;;2.30;100.00;97904.61;269204;1276;22385;-85
2024/02/08 09:19:38;;;;;;;22.90;10.30;;;;;;;2.28;100.00;97912.49;271904;1276;22416;-85
2024/02/08 09:26:04;;;;;;;23.40;11.90;;;;;;;2.28;100.00;97908.24;271656;1276;22238;-85
2024/02/08 09:38:53;;;;;;;;;;;;;;;2.38;100.00;97915.45;271823;1276;22513;-85
2024/02/08 09:45:42;;;;;;;16.00;9.70;;;;;;;2.39;100.00;97904.91;272086;1276;22258;-85
2024/02/08 09:52:16;;;;;;;18.10;8.90;;;;;;;2.40;100.00;97902.61;272147;1279;23176;-85
2024/02/08 09:58:38;;;;;;;20.00;10.00;;;;;;;2.38;100.00;97880.64;272040;1277;22257;-84
2024/02/08 10:04:57;;;;;;;19.60;10.40;;;;;;;2.39;100.00;97863.62;271793;1274;22868;-85
2024/02/08 10:11:11;;;;;;;22.30;12.50;;;;;;;2.42;100.00;97857.66;271554;1276;22411;-84
2024/02/08 10:17:51;;;;;;;18.90;9.60;;;;;;;2.38;100.00;97854.89;272422;1276;22195;-85
2024/02/08 10:24:27;;;;;;;27.40;12.50;;;;;;;2.39;100.00;97849.64;271630;1276;23058;-86
2024/02/08 10:31:07;;;;;;;29.00;15.20;;;;;;;2.41;100.00;97842.45;271844;1276;22210;-85
2024/02/08 10:37:46;;;;;;;20.00;10.50;;;;;;;2.49;100.00;97832.08;271756;1276;22233;-85
2024/02/08 10:43:37;;;;;;;16.60;8.60;;;;;;;2.52;100.00;97816.63;270202;1276;23216;-89
2024/02/08 10:50:19;;;;;;;21.20;9.50;;;;;;;2.44;100.00;97812.41;271681;1277;22235;-85
2024/02/08 10:57:09;;;;;;;20.80;9.60;;;;;;;2.38;100.00;97812.06;270267;1276;22585;-84
2024/02/08 11:03:33;;;;;;;17.30;8.70;;;;;;;2.38;100.00;97800.02;269394;1277;22564;-84
2024/02/08 11:09:35;;;;;;;20.30;10.10;;;;;;;2.43;100.00;97791.08;270943;1277;22276;-84
2024/02/08 11:15:49;;;;;;;19.60;10.00;;;;;;;2.46;100.00;97778.44;272509;1277;22203;-85
2024/02/08 11:22:18;;;;;;;16.70;9.10;;;;;;;2.52;100.00;97767.92;271825;1277;22996;-83
2024/02/08 11:29:01;;;;;;;13.50;7.80;;;;;;;2.57;100.00;97761.09;272080;1277;22580;-84
2024/02/08 11:35:08;;;;;;;13.90;8.80;;;;;;;2.61;100.00;97751.87;271658;1276;22363;-86
2024/02/08 11:41:10;;;;;;;14.60;8.90;;;;;;;2.63;100.00;97762.31;271557;1274;22443;-87
2024/02/08 11:47:23;;;;;;;15.30;9.60;;;;;;;2.73;100.00;97767.48;271978;1277;22341;-86
2024/02/08 11:53:34;;;;;;;16.70;9.60;;;;;;;2.75;100.00;97762.83;271945;1264;22369;-86
2024/02/08 11:59:36;;;;;;;15.20;9.20;;;;;;;2.80;100.00;97754.89;271912;1276;22211;-86
2024/02/08 12:05:38;;;;;;;17.10;9.20;;;;;;;2.81;100.00;97742.56;270319;1273;22207;-85
2024/02/08 12:11:43;;;;;;;16.30;10.10;;;;;;;2.81;100.00;97718.93;272362;1283;22213;-85
2024/02/08 12:18:28;;;;;;;18.30;10.10;;;;;;;2.82;100.00;97696.25;272187;1279;22223;-86
2024/02/08 12:24:35;;;;;;;19.50;9.80;;;;;;;2.86;100.00;97701.42;272528;1277;22276;-86
2024/02/08 12:30:39;;;;;;;17.00;10.30;;;;;;;2.90;100.00;97711.95;271646;1276;22266;-86
2024/02/08 12:36:49;;;;;;;20.60;9.80;;;;;;;2.91;100.00;97690.78;272148;1277;22225;-86
2024/02/08 12:42:53;;;;;;;19.60;10.50;;;;;;;2.89;100.00;97684.81;271562;1277;23411;-86
2024/02/08 12:49:00;;;;;;;19.80;12.00;;;;;;;2.84;100.00;97682.88;272204;1280;22285;-86
2024/02/08 12:55:36;;;;;;;17.80;11.60;;;;;;;2.78;100.00;97682.27;271840;1276;22335;-87
2024/02/08 13:02:08;;;;;;;21.70;11.00;;;;;;;2.77;100.00;97686.42;271924;1277;22182;-84
2024/02/08 13:08:19;;;;;;;23.30;11.20;;;;;;;2.76;100.00;97674.82;272011;1277;23070;-85
2024/02/08 13:14:30;;;;;;;21.10;11.40;;;;;;;2.70;100.00;97661.34;272236;1277;23138;-86
2024/02/08 13:20:51;;;;;;;20.00;11.70;;;;;;;2.68;100.00;97666.78;272220;1277;22848;-86
2024/02/08 13:27:12;;;;;;;19.30;12.60;;;;;;;2.66;100.00;97657.61;272181;1280;22219;-86
2024/02/08 13:33:15;;;;;;;22.50;13.30;;;;;;;2.62;100.00;97656.30;272053;1277;23373;-87
2024/02/08 13:39:17;;;;;;;23.40;13.60;;;;;;;2.60;100.00;97646.31;272046;1278;22233;-87
2024/02/08 13:45:35;;;;;;;22.70;12.40;;;;;;;2.57;100.00;97639.23;271712;1277;22235;-86
2024/02/08 13:51:37;;;;;;;23.80;12.00;;;;;;;2.56;100.00;97632.73;270435;1277;22547;-86
2024/02/08 13:57:42;;;;;;;26.80;13.90;;;;;;;2.54;100.00;97621.55;270918;1277;22981;-86
2024/02/08 14:03:56;;;;;;;22.80;14.00;;;;;;;2.48;100.00;97616.20;271223;1276;22554;-83
2024/02/08 14:10:00;;;;;;;22.00;13.30;;;;;;;2.44;100.00;97622.45;271872;1280;22053;-86
2024/02/08 14:16:13;;;;;;;22.00;12.80;;;;;;;2.43;100.00;97620.95;272043;1277;22376;-85
2024/02/08 14:23:01;;;;;;;24.30;13.00;;;;;;;2.44;100.00;97617.42;270062;1277;22651;-86
2024/02/08 14:29:08;;;;;;;25.00;14.30;;;;;;;2.45;100.00;97617.58;269974;1277;22278;-85
2024/02/08 14:35:24;;;;;;;;;;;;;;;2.46;100.00;97617.30;271928;1278;22620;-85
2024/02/08 14:41:34;;;;;;;20.50;12.60;;;;;;;2.45;100.00;97609.80;269458;1277;22642;-85
2024/02/08 14:47:36;;;;;;;19.80;12.50;;;;;;;2.41;100.00;97599.23;270678;1270;23672;-86
2024/02/08 14:54:12;;;;;;;22.30;13.30;;;;;;;2.37;100.00;97596.13;272451;1277;22193;-86
2024/02/08 15:01:11;;;;;;;25.40;15.10;;;;;;;2.38;100.00;97604.34;272232;1280;22191;-86
2024/02/08 15:14:42;;;;;;;20.30;12.60;;;;;;;2.36;100.00;97596.44;272117;1279;23213;-87
2024/02/08 15:21:34;;;;;;;30.70;15.30;;;;;;;2.37;100.00;97588.64;272245;1280;23384;-85
2024/02/08 15:40:55;;;;;;;25.60;15.60;;;;;;;2.32;100.00;97577.34;269683;1276;23204;-86
2024/02/08 15:46:56;;;;;;;24.30;14.00;;;;;;;2.32;100.00;97575.75;270651;1277;24233;-85
2024/02/08 15:53:19;;;;;;;36.40;18.90;;;;;;;2.33;100.00;97575.23;271229;1277;22290;-86
2024/02/08 15:59:23;;;;;;;32.80;17.50;;;;;;;2.30;100.00;97566.52;272035;1277;23606;-86
2024/02/08 16:05:28;;;;;;;27.70;15.50;;;;;;;2.29;100.00;97570.26;271815;1276;22324;-85
2024/02/08 16:11:34;;;;;;;26.20;15.20;;;;;;;2.27;100.00;97570.84;270575;1276;22616;-89
2024/02/08 16:18:22;;;;;;;24.70;13.90;;;;;;;2.27;100.00;97579.47;271596;1277;23352;-86
2024/02/08 16:24:49;;;;;;;28.80;15.10;;;;;;;2.28;100.00;97585.54;271762;1276;23487;-86
2024/02/08 16:31:06;;;;;;;29.30;15.50;;;;;;;2.30;100.00;97584.17;269912;1277;22189;-85
2024/02/08 16:37:30;;;;;;;31.90;18.00;;;;;;;2.30;100.00;97581.10;270709;1277;22240;-86
2024/02/08 16:43:59;;;;;;;36.30;20.90;;;;;;;2.30;100.00;97572.30;272085;1277;22293;-86
2024/02/08 16:50:23;;;;;;;102.20;45.80;;;;;;;2.31;100.00;97567.53;272413;1280;22390;-85
2024/02/08 16:57:09;;;;;;;79.10;35.60;;;;;;;2.31;100.00;97553.73;271992;1277;23382;-86
2024/02/08 17:10:16;;;;;;;34.10;18.00;;;;;;;2.30;100.00;97542.20;271432;1275;22235;-85
2024/02/08 17:17:57;;;;;;;;;;;;;;;;;;;;;
2024/02/08 17:24:22;;;;;;;30.50;17.50;;;;;;;2.26;100.00;97539.98;271707;1276;22254;-86
2024/02/08 17:37:06;;;;;;;26.90;16.80;;;;;;;2.30;100.00;97544.20;272030;1277;22336;-86
2024/02/08 17:43:38;;;;;;;39.10;21.00;;;;;;;2.34;100.00;97541.28;271465;1276;22640;-86
2024/02/08 17:49:47;;;;;;;35.20;19.00;;;;;;;2.35;100.00;97531.05;270337;1277;22892;-85
2024/02/08 17:55:50;;;;;;;32.60;19.30;;;;;;;2.34;100.00;97517.30;269773;1276;23511;-84
2024/02/08 18:01:54;;;;;;;33.80;19.60;;;;;;;2.34;100.00;97507.34;261400;1277;10001385;-86
2024/02/08 18:08:38;;;;;;;37.80;22.20;;;;;;;2.34;100.00;97499.94;271467;1276;22188;-85
2024/02/08 18:15:12;;;;;;;38.20;20.30;;;;;;;2.32;100.00;97487.48;272279;1283;22211;-85
2024/02/08 18:22:15;;;;;;;33.50;20.00;;;;;;;2.29;100.00;97478.06;272238;1279;22769;-86
2024/02/08 18:28:43;;;;;;;41.30;23.50;;;;;;;2.30;100.00;97470.63;272108;1283;22222;-87
2024/02/08 18:34:49;;;;;;;41.00;23.80;;;;;;;2.32;100.00;97461.88;272086;1277;22411;-86
2024/02/08 18:41:01;;;;;;;44.60;26.60;;;;;;;2.32;100.00;97456.62;272185;1283;22216;-86
2024/02/08 18:47:07;;;;;;;43.70;26.60;;;;;;;2.32;100.00;97448.52;271888;1280;22997;-85
2024/02/08 18:53:10;;;;;;;47.80;28.00;;;;;;;2.34;100.00;97441.36;271906;1270;23456;-86
2024/02/08 18:59:56;;;;;;;53.50;31.30;;;;;;;2.36;100.00;97430.30;272029;1282;22260;-86
2024/02/08 19:06:51;;;;;;;52.70;29.70;;;;;;;2.38;100.00;97418.52;272129;1280;23226;-86
2024/02/08 19:13:12;;;;;;;54.90;30.30;;;;;;;2.40;100.00;97405.14;271539;1277;22322;-86
2024/02/08 19:19:34;;;;;;;66.50;35.80;;;;;;;2.41;100.00;97398.29;271352;1276;23196;-85
2024/02/08 19:26:08;;;;;;;69.10;35.70;;;;;;;2.44;100.00;97396.09;272178;1279;22273;-86
2024/02/08 19:32:27;;;;;;;71.20;36.40;;;;;;;2.45;100.00;97389.65;271876;1280;22213;-86
2024/02/08 19:38:44;;;;;;;65.80;34.50;;;;;;;2.45;100.00;97379.68;271332;1277;22237;-85
2024/02/08 19:45:11;;;;;;;59.80;33.70;;;;;;;2.43;100.00;97367.99;272161;1281;22343;-86
2024/02/08 19:51:50;;;;;;;56.90;30.70;;;;;;;2.43;100.00;97362.83;271747;1276;22293;-86
2024/02/08 19:58:17;;;;;;;57.00;30.50;;;;;;;2.46;100.00;97358.10;271620;1277;147732;-86
2024/02/08 20:05:05;;;;;;;60.50;31.40;;;;;;;2.46;100.00;97347.52;271961;1280;22192;-86
2024/02/08 20:11:13;;;;;;;53.40;29.50;;;;;;;2.43;100.00;97344.92;272321;1282;22203;-86
2024/02/08 20:17:49;;;;;;;57.60;31.50;;;;;;;2.43;100.00;97339.14;272254;1280;23358;-87
2024/02/08 20:24:47;;;;;;;57.00;28.60;;;;;;;2.44;100.00;97334.70;272198;1282;22249;-86
2024/02/08 20:31:16;;;;;;;52.80;28.00;;;;;;;2.44;100.00;97337.70;272028;1279;22373;-86
2024/02/08 20:37:28;;;;;;;53.30;29.00;;;;;;;2.43;100.00;97338.98;271848;1276;22360;-86
2024/02/08 20:44:10;;;;;;;53.90;27.70;;;;;;;2.39;100.00;97349.50;272311;1283;22203;-86
2024/02/08 20:50:50;;;;;;;53.00;26.30;;;;;;;2.35;100.00;97338.09;272243;1276;22277;-85
2024/02/08 20:57:17;;;;;;;48.70;24.20;;;;;;;2.35;100.00;97323.35;272188;1283;22716;-85
2024/02/08 21:04:06;;;;;;;43.80;21.90;;;;;;;2.33;100.00;97325.45;271705;1276;22255;-86
2024/02/08 21:10:10;;;;;;;34.00;18.70;;;;;;;2.31;100.00;97317.57;271841;1279;22220;-85
2024/02/08 21:16:14;;;;;;;31.60;17.60;;;;;;;2.32;100.00;97306.70;271494;1275;22512;-86
2024/02/08 21:22:20;;;;;;;31.70;16.90;;;;;;;2.31;100.00;97303.54;272103;1280;22228;-85
2024/02/08 21:28:51;;;;;;;28.30;15.90;;;;;;;2.28;100.00;97284.89;271676;1276;22230;-85
2024/02/08 21:35:15;;;;;;;33.90;17.90;;;;;;;2.26;100.00;97278.76;272098;1284;22660;-85
2024/02/08 21:42:06;;;;;;;35.80;16.80;;;;;;;2.23;100.00;97265.13;272162;1283;22941;-86
2024/02/08 21:48:46;;;;;;;29.80;16.10;;;;;;;2.22;100.00;97267.20;271828;1277;22224;-86
2024/02/08 21:55:08;;;;;;;33.00;17.50;;;;;;;2.21;100.00;97253.39;271981;1276;22220;-86
2024/02/08 22:01:30;;;;;;;28.80;15.90;;;;;;;2.20;100.00;97251.84;272093;1277;22425;-86
2024/02/08 22:08:03;;;;;;;32.30;18.00;;;;;;;2.20;100.00;97282.00;272296;1283;23432;-87
2024/02/08 22:14:27;;;;;;;30.10;16.60;;;;;;;2.19;100.00;97293.45;271228;1276;22272;-86
2024/02/08 22:20:38;;;;;;;30.60;17.80;;;;;;;2.17;100.00;97283.70;272246;1280;22326;-86
2024/02/08 22:27:04;;;;;;;26.90;14.70;;;;;;;2.15;100.00;97280.13;272156;1280;22190;-85
2024/02/08 22:33:30;;;;;;;30.50;17.40;;;;;;;2.19;100.00;97267.31;271702;1276;22294;-86
2024/02/08 22:40:08;;;;;;;33.00;17.10;;;;;;;2.22;100.00;97255.34;271827;1277;22226;-85
2024/02/08 22:46:54;;;;;;;28.30;15.90;;;;;;;2.22;100.00;97253.09;272207;1277;22202;-86
2024/02/08 22:53:47;;;;;;;30.50;15.60;;;;;;;2.24;100.00;97249.88;271602;1276;22390;-86
2024/02/08 23:00:30;;;;;;;29.00;15.20;;;;;;;2.27;100.00;97259.80;272317;1280;22969;-86
2024/02/08 23:07:50;;;;;;;27.30;16.20;;;;;;;2.28;100.00;97253.02;272095;1280;22331;-87
2024/02/08 23:14:22;;;;;;;24.40;14.40;;;;;;;2.25;100.00;97248.97;272066;1278;24157;-85
2024/02/08 23:20:44;;;;;;;25.40;15.60;;;;;;;2.26;100.00;97239.11;272213;1280;23446;-86
2024/02/08 23:26:54;;;;;;;23.70;14.00;;;;;;;2.29;100.00;97232.91;272154;1280;22213;-85
2024/02/08 23:33:37;;;;;;;24.80;14.60;;;;;;;2.37;100.00;97232.73;272362;1278;22221;-87
2024/02/08 23:40:42;;;;;;;27.00;15.20;;;;;;;2.43;100.00;97224.65;272044;1276;22245;-86
2024/02/08 23:46:45;;;;;;;27.00;15.60;;;;;;;2.46;100.00;97219.60;272002;1276;22277;-87
2024/02/08 23:53:35;;;;;;;27.40;15.60;;;;;;;2.49;100.00;97228.65;272004;1277;22226;-84
2024/02/08 23:59:47;;;;;;;20.60;11.30;;;;;;;2.49;100.00;97237.38;271752;1277;24711;-89
